sensor_id;sensor_type;location;lat;lon;timestamp;P1;durP1;ratioP1;P2;durP2;ratioP2
17193;SDS011;8713;48.388;10.928;2023-03-16T07:03:59;11.93;;;6.70;;
17193;SDS011;8713;48.388;10.928;2023-03-16T07:05:33;9.90;;;5.65;;
17193;SDS011;8713;48.388;10.928;2023-03-16T07:07:03;10.05;;;6.15;;
17193;SDS011;8713;48.388;10.928;2023-03-16T07:08:33;10.05;;;6.13;;
17193;SDS011;8713;48.388;10.928;2023-03-16T07:10:02;8.45;;;5.70;;
17193;SDS011;8713;48.388;10.928;2023-03-16T07:11:32;9.43;;;6.03;;
17193;SDS011;8713;48.388;10.928;2023-03-16T07:13:02;9.95;;;6.05;;
17193;SDS011;8713;48.388;10.928;2023-03-16T07:14:32;10.00;;;6.10;;
17193;SDS011;8713;48.388;10.928;2023-03-16T07:16:02;9.32;;;5.63;;
17193;SDS011;8713;48.388;10.928;2023-03-16T07:17:33;9.38;;;6.03;;
17193;SDS011;8713;48.388;10.928;2023-03-16T07:19:05;8.65;;;5.75;;
17193;SDS011;8713;48.388;10.928;2023-03-16T07:20:35;9.68;;;6.22;;
17193;SDS011;8713;48.388;10.928;2023-03-16T07:22:08;10.63;;;6.18;;
17193;SDS011;8713;48.388;10.928;2023-03-16T07:23:41;9.57;;;6.50;;
17193;SDS011;8713;48.388;10.928;2023-03-16T07:25:12;9.05;;;6.53;;
17193;SDS011;8713;48.388;10.928;2023-03-16T07:26:46;9.35;;;6.53;;
17193;SDS011;8713;48.388;10.928;2023-03-16T07:28:24;11.25;;;6.80;;
17193;SDS011;8713;48.388;10.928;2023-03-16T07:29:54;9.23;;;6.07;;
17193;SDS011;8713;48.388;10.928;2023-03-16T07:31:24;11.98;;;6.63;;
17193;SDS011;8713;48.388;10.928;2023-03-16T07:32:54;12.60;;;6.28;;
17193;SDS011;8713;48.388;10.928;2023-03-16T07:34:26;10.38;;;6.03;;
17193;SDS011;8713;48.388;10.928;2023-03-16T07:35:59;10.75;;;6.43;;
17193;SDS011;8713;48.388;10.928;2023-03-16T07:37:32;22.58;;;13.68;;
17193;SDS011;8713;48.388;10.928;2023-03-16T07:39:04;26.75;;;15.70;;
17193;SDS011;8713;48.388;10.928;2023-03-16T07:40:38;20.02;;;11.38;;
17193;SDS011;8713;48.388;10.928;2023-03-16T07:42:14;14.15;;;7.65;;
17193;SDS011;8713;48.388;10.928;2023-03-16T07:43:55;11.85;;;7.43;;
17193;SDS011;8713;48.388;10.928;2023-03-16T07:45:26;11.20;;;7.30;;
17193;SDS011;8713;48.388;10.928;2023-03-16T07:46:56;10.50;;;6.30;;
17193;SDS011;8713;48.388;10.928;2023-03-16T07:48:29;11.85;;;6.38;;
17193;SDS011;8713;48.388;10.928;2023-03-16T07:50:06;12.00;;;6.30;;
17193;SDS011;8713;48.388;10.928;2023-03-16T07:51:37;13.00;;;5.57;;
17193;SDS011;8713;48.388;10.928;2023-03-16T07:53:08;10.13;;;6.22;;
17193;SDS011;8713;48.388;10.928;2023-03-16T07:54:41;9.50;;;6.22;;
17193;SDS011;8713;48.388;10.928;2023-03-16T07:56:12;9.20;;;6.32;;
17193;SDS011;8713;48.388;10.928;2023-03-16T07:57:43;8.40;;;5.97;;
17193;SDS011;8713;48.388;10.928;2023-03-16T07:59:16;10.63;;;5.80;;
17193;SDS011;8713;48.388;10.928;2023-03-16T08:00:46;9.55;;;6.00;;
17193;SDS011;8713;48.388;10.928;2023-03-16T08:02:16;11.73;;;5.95;;
17193;SDS011;8713;48.388;10.928;2023-03-16T08:03:50;8.95;;;5.70;;
17193;SDS011;8713;48.388;10.928;2023-03-16T08:05:20;10.35;;;5.60;;
17193;SDS011;8713;48.388;10.928;2023-03-16T08:06:54;9.55;;;6.00;;
17193;SDS011;8713;48.388;10.928;2023-03-16T08:08:31;9.27;;;5.70;;
17193;SDS011;8713;48.388;10.928;2023-03-16T08:10:01;9.30;;;5.28;;
17193;SDS011;8713;48.388;10.928;2023-03-16T08:11:38;8.27;;;5.60;;
17193;SDS011;8713;48.388;10.928;2023-03-16T08:13:08;9.30;;;5.57;;
17193;SDS011;8713;48.388;10.928;2023-03-16T08:14:42;9.00;;;5.72;;
17193;SDS011;8713;48.388;10.928;2023-03-16T08:16:20;9.50;;;5.85;;
17193;SDS011;8713;48.388;10.928;2023-03-16T08:17:53;8.85;;;5.22;;
17193;SDS011;8713;48.388;10.928;2023-03-16T08:19:26;8.63;;;5.45;;
17193;SDS011;8713;48.388;10.928;2023-03-16T08:20:59;11.32;;;5.95;;
17193;SDS011;8713;48.388;10.928;2023-03-16T08:22:29;8.95;;;5.35;;
17193;SDS011;8713;48.388;10.928;2023-03-16T08:23:59;10.00;;;5.63;;
17193;SDS011;8713;48.388;10.928;2023-03-16T08:25:29;10.75;;;5.72;;
17193;SDS011;8713;48.388;10.928;2023-03-16T08:27:05;8.82;;;5.38;;
17193;SDS011;8713;48.388;10.928;2023-03-16T08:28:36;8.65;;;5.07;;
17193;SDS011;8713;48.388;10.928;2023-03-16T08:30:11;9.20;;;5.18;;
17193;SDS011;8713;48.388;10.928;2023-03-16T08:31:45;10.60;;;5.55;;
17193;SDS011;8713;48.388;10.928;2023-03-16T08:33:22;10.02;;;6.38;;
17193;SDS011;8713;48.388;10.928;2023-03-16T08:34:54;9.98;;;5.50;;
17193;SDS011;8713;48.388;10.928;2023-03-16T08:36:25;7.78;;;5.05;;
17193;SDS011;8713;48.388;10.928;2023-03-16T08:37:58;8.13;;;5.68;;
17193;SDS011;8713;48.388;10.928;2023-03-16T08:39:28;9.98;;;5.85;;
17193;SDS011;8713;48.388;10.928;2023-03-16T08:40:58;9.35;;;6.13;;
17193;SDS011;8713;48.388;10.928;2023-03-16T08:42:28;6.50;;;5.13;;
17193;SDS011;8713;48.388;10.928;2023-03-16T08:44:02;9.23;;;5.35;;
17193;SDS011;8713;48.388;10.928;2023-03-16T08:45:32;9.68;;;5.10;;
17193;SDS011;8713;48.388;10.928;2023-03-16T08:47:03;8.98;;;5.97;;
17193;SDS011;8713;48.388;10.928;2023-03-16T08:48:33;7.57;;;5.07;;
17193;SDS011;8713;48.388;10.928;2023-03-16T08:50:05;10.02;;;6.10;;
17193;SDS011;8713;48.388;10.928;2023-03-16T08:51:35;8.45;;;5.80;;
17193;SDS011;8713;48.388;10.928;2023-03-16T08:53:05;7.95;;;5.20;;
17193;SDS011;8713;48.388;10.928;2023-03-16T08:54:35;8.13;;;5.25;;
17193;SDS011;8713;48.388;10.928;2023-03-16T08:56:09;8.40;;;5.55;;
17193;SDS011;8713;48.388;10.928;2023-03-16T08:57:41;10.05;;;5.53;;
17193;SDS011;8713;48.388;10.928;2023-03-16T08:59:13;8.43;;;5.47;;
17193;SDS011;8713;48.388;10.928;2023-03-16T09:00:42;8.18;;;5.07;;
17193;SDS011;8713;48.388;10.928;2023-03-16T09:02:12;7.65;;;4.88;;
17193;SDS011;8713;48.388;10.928;2023-03-16T09:03:42;8.25;;;5.20;;
17193;SDS011;8713;48.388;10.928;2023-03-16T09:05:14;6.88;;;4.57;;
17193;SDS011;8713;48.388;10.928;2023-03-16T09:06:45;8.32;;;5.15;;
17193;SDS011;8713;48.388;10.928;2023-03-16T09:08:15;7.30;;;4.90;;
17193;SDS011;8713;48.388;10.928;2023-03-16T09:09:46;7.15;;;4.82;;
17193;SDS011;8713;48.388;10.928;2023-03-16T09:11:17;8.57;;;5.10;;
17193;SDS011;8713;48.388;10.928;2023-03-16T09:12:48;6.35;;;4.60;;
17193;SDS011;8713;48.388;10.928;2023-03-16T09:14:18;7.93;;;4.85;;
17193;SDS011;8713;48.388;10.928;2023-03-16T09:15:49;7.55;;;4.80;;
17193;SDS011;8713;48.388;10.928;2023-03-16T09:17:18;8.48;;;4.75;;
17193;SDS011;8713;48.388;10.928;2023-03-16T09:18:49;7.68;;;5.00;;
17193;SDS011;8713;48.388;10.928;2023-03-16T09:20:19;8.27;;;5.18;;
17193;SDS011;8713;48.388;10.928;2023-03-16T09:21:48;7.78;;;4.85;;
17193;SDS011;8713;48.388;10.928;2023-03-16T09:23:19;6.93;;;4.50;;
17193;SDS011;8713;48.388;10.928;2023-03-16T09:24:29;7.68;;;4.78;;
17193;SDS011;8713;48.388;10.928;2023-03-16T09:25:38;8.52;;;5.05;;
17193;SDS011;8713;48.388;10.928;2023-03-16T09:26:48;6.70;;;4.57;;
17193;SDS011;8713;48.388;10.928;2023-03-16T09:27:58;7.65;;;4.88;;
17193;SDS011;8713;48.388;10.928;2023-03-16T09:29:09;7.07;;;4.65;;
17193;SDS011;8713;48.388;10.928;2023-03-16T09:30:18;5.83;;;4.20;;
17193;SDS011;8713;48.388;10.928;2023-03-16T09:31:42;6.75;;;4.05;;
17193;SDS011;8713;48.388;10.928;2023-03-16T09:32:52;5.95;;;4.47;;
17193;SDS011;8713;48.388;10.928;2023-03-16T09:34:01;7.88;;;4.90;;
17193;SDS011;8713;48.388;10.928;2023-03-16T09:35:12;7.10;;;4.47;;
17193;SDS011;8713;48.388;10.928;2023-03-16T09:36:21;7.00;;;4.40;;
17193;SDS011;8713;48.388;10.928;2023-03-16T09:37:31;5.93;;;4.35;;
17193;SDS011;8713;48.388;10.928;2023-03-16T09:38:42;7.85;;;4.45;;
17193;SDS011;8713;48.388;10.928;2023-03-16T09:39:52;7.65;;;4.70;;
17193;SDS011;8713;48.388;10.928;2023-03-16T09:41:08;5.20;;;4.03;;
17193;SDS011;8713;48.388;10.928;2023-03-16T09:42:45;6.00;;;4.35;;
17193;SDS011;8713;48.388;10.928;2023-03-16T09:47:20;5.80;;;3.60;;
17193;SDS011;8713;48.388;10.928;2023-03-16T09:48:36;6.50;;;4.00;;
17193;SDS011;8713;48.388;10.928;2023-03-16T09:49:47;5.47;;;4.00;;
17193;SDS011;8713;48.388;10.928;2023-03-16T09:50:57;5.82;;;4.30;;
17193;SDS011;8713;48.388;10.928;2023-03-16T09:53:31;7.97;;;4.47;;
17193;SDS011;8713;48.388;10.928;2023-03-16T09:56:51;5.35;;;4.22;;
17193;SDS011;8713;48.388;10.928;2023-03-16T09:57:47;6.97;;;4.43;;
17193;SDS011;8713;48.388;10.928;2023-03-16T09:58:59;8.82;;;5.10;;
17193;SDS011;8713;48.388;10.928;2023-03-16T10:00:13;7.10;;;5.18;;
17193;SDS011;8713;48.388;10.928;2023-03-16T10:01:42;6.35;;;4.72;;
17193;SDS011;8713;48.388;10.928;2023-03-16T10:05:19;7.28;;;4.07;;
17193;SDS011;8713;48.388;10.928;2023-03-16T10:06:53;7.07;;;4.38;;
17193;SDS011;8713;48.388;10.928;2023-03-16T10:12:56;5.85;;;4.20;;
17193;SDS011;8713;48.388;10.928;2023-03-16T10:14:31;7.72;;;4.50;;
17193;SDS011;8713;48.388;10.928;2023-03-16T10:16:07;6.90;;;4.80;;
17193;SDS011;8713;48.388;10.928;2023-03-16T10:21:00;5.68;;;4.10;;
17193;SDS011;8713;48.388;10.928;2023-03-16T10:22:32;8.82;;;3.65;;
17193;SDS011;8713;48.388;10.928;2023-03-16T10:24:11;6.63;;;4.28;;
17193;SDS011;8713;48.388;10.928;2023-03-16T10:25:55;5.05;;;3.42;;
17193;SDS011;8713;48.388;10.928;2023-03-16T10:27:33;6.00;;;3.75;;
17193;SDS011;8713;48.388;10.928;2023-03-16T10:29:09;4.72;;;3.35;;
17193;SDS011;8713;48.388;10.928;2023-03-16T10:30:39;5.93;;;4.15;;
17193;SDS011;8713;48.388;10.928;2023-03-16T10:32:13;5.93;;;4.03;;
17193;SDS011;8713;48.388;10.928;2023-03-16T10:33:43;8.55;;;3.90;;
17193;SDS011;8713;48.388;10.928;2023-03-16T10:35:19;5.55;;;3.47;;
17193;SDS011;8713;48.388;10.928;2023-03-16T10:37:04;5.82;;;3.67;;
17193;SDS011;8713;48.388;10.928;2023-03-16T10:40:08;4.72;;;3.50;;
17193;SDS011;8713;48.388;10.928;2023-03-16T10:41:41;5.18;;;3.58;;
17193;SDS011;8713;48.388;10.928;2023-03-16T10:43:12;5.20;;;3.60;;
17193;SDS011;8713;48.388;10.928;2023-03-16T10:44:41;4.05;;;3.20;;
17193;SDS011;8713;48.388;10.928;2023-03-16T10:46:09;5.95;;;3.30;;
17193;SDS011;8713;48.388;10.928;2023-03-16T10:47:38;4.60;;;2.70;;
17193;SDS011;8713;48.388;10.928;2023-03-16T10:49:18;5.05;;;3.35;;
17193;SDS011;8713;48.388;10.928;2023-03-16T10:50:30;4.00;;;2.90;;
17193;SDS011;8713;48.388;10.928;2023-03-16T10:51:59;5.15;;;2.88;;
17193;SDS011;8713;48.388;10.928;2023-03-16T10:53:46;4.35;;;3.28;;
17193;SDS011;8713;48.388;10.928;2023-03-16T10:55:16;4.90;;;2.80;;
17193;SDS011;8713;48.388;10.928;2023-03-16T10:56:50;5.03;;;3.28;;
17193;SDS011;8713;48.388;10.928;2023-03-16T10:58:22;4.05;;;3.15;;
17193;SDS011;8713;48.388;10.928;2023-03-16T11:01:43;4.00;;;3.03;;
17193;SDS011;8713;48.388;10.928;2023-03-16T11:02:59;3.75;;;2.80;;
17193;SDS011;8713;48.388;10.928;2023-03-16T11:04:29;5.13;;;2.72;;
17193;SDS011;8713;48.388;10.928;2023-03-16T11:06:00;4.18;;;2.72;;
17193;SDS011;8713;48.388;10.928;2023-03-16T11:07:30;4.95;;;2.80;;
17193;SDS011;8713;48.388;10.928;2023-03-16T11:08:41;4.18;;;2.60;;
17193;SDS011;8713;48.388;10.928;2023-03-16T11:10:22;6.10;;;2.88;;
17193;SDS011;8713;48.388;10.928;2023-03-16T11:13:35;6.07;;;3.20;;
17193;SDS011;8713;48.388;10.928;2023-03-16T11:15:11;3.83;;;2.90;;
17193;SDS011;8713;48.388;10.928;2023-03-16T11:17:55;4.25;;;2.90;;
17193;SDS011;8713;48.388;10.928;2023-03-16T11:20:40;4.07;;;2.45;;
17193;SDS011;8713;48.388;10.928;2023-03-16T11:23:47;4.10;;;2.25;;
17193;SDS011;8713;48.388;10.928;2023-03-16T11:25:19;4.68;;;2.85;;
17193;SDS011;8713;48.388;10.928;2023-03-16T11:27:00;4.63;;;2.90;;
17193;SDS011;8713;48.388;10.928;2023-03-16T11:28:35;3.85;;;2.72;;
17193;SDS011;8713;48.388;10.928;2023-03-16T11:32:19;3.40;;;2.53;;
17193;SDS011;8713;48.388;10.928;2023-03-16T11:33:32;5.63;;;2.60;;
17193;SDS011;8713;48.388;10.928;2023-03-16T11:35:05;4.13;;;2.75;;
17193;SDS011;8713;48.388;10.928;2023-03-16T11:38:32;3.72;;;2.17;;
17193;SDS011;8713;48.388;10.928;2023-03-16T11:40:31;3.70;;;2.80;;
17193;SDS011;8713;48.388;10.928;2023-03-16T11:42:36;3.63;;;2.63;;
17193;SDS011;8713;48.388;10.928;2023-03-16T11:44:15;4.22;;;3.00;;
17193;SDS011;8713;48.388;10.928;2023-03-16T11:53:07;3.45;;;2.55;;
17193;SDS011;8713;48.388;10.928;2023-03-16T11:54:50;4.15;;;2.80;;
17193;SDS011;8713;48.388;10.928;2023-03-16T11:56:42;6.22;;;3.17;;
17193;SDS011;8713;48.388;10.928;2023-03-16T12:03:54;4.70;;;2.90;;
17193;SDS011;8713;48.388;10.928;2023-03-16T12:05:36;4.95;;;2.95;;
17193;SDS011;8713;48.388;10.928;2023-03-16T12:09:39;5.10;;;2.83;;
17193;SDS011;8713;48.388;10.928;2023-03-16T12:11:01;4.35;;;3.00;;
17193;SDS011;8713;48.388;10.928;2023-03-16T12:13:08;5.10;;;3.33;;
17193;SDS011;8713;48.388;10.928;2023-03-16T12:15:25;4.45;;;3.30;;
17193;SDS011;8713;48.388;10.928;2023-03-16T12:17:19;5.30;;;3.45;;
17193;SDS011;8713;48.388;10.928;2023-03-16T12:18:52;5.78;;;3.70;;
17193;SDS011;8713;48.388;10.928;2023-03-16T12:20:37;4.85;;;2.92;;
17193;SDS011;8713;48.388;10.928;2023-03-16T12:22:16;4.45;;;3.38;;
17193;SDS011;8713;48.388;10.928;2023-03-16T12:23:51;5.10;;;3.10;;
17193;SDS011;8713;48.388;10.928;2023-03-16T12:25:31;5.28;;;3.05;;
17193;SDS011;8713;48.388;10.928;2023-03-16T12:27:03;5.47;;;3.33;;
17193;SDS011;8713;48.388;10.928;2023-03-16T12:28:33;5.90;;;3.05;;
17193;SDS011;8713;48.388;10.928;2023-03-16T12:30:12;4.25;;;2.63;;
17193;SDS011;8713;48.388;10.928;2023-03-16T12:32:37;5.03;;;2.67;;
17193;SDS011;8713;48.388;10.928;2023-03-16T12:34:31;4.55;;;2.45;;
17193;SDS011;8713;48.388;10.928;2023-03-16T12:37:44;5.22;;;2.90;;
17193;SDS011;8713;48.388;10.928;2023-03-16T12:39:39;4.38;;;2.95;;
17193;SDS011;8713;48.388;10.928;2023-03-16T12:41:26;3.72;;;2.50;;
17193;SDS011;8713;48.388;10.928;2023-03-16T12:48:18;4.50;;;2.70;;
17193;SDS011;8713;48.388;10.928;2023-03-16T12:49:35;4.88;;;2.88;;
17193;SDS011;8713;48.388;10.928;2023-03-16T12:51:04;4.55;;;2.80;;
17193;SDS011;8713;48.388;10.928;2023-03-16T12:52:14;4.15;;;2.30;;
17193;SDS011;8713;48.388;10.928;2023-03-16T12:53:45;3.15;;;2.13;;
17193;SDS011;8713;48.388;10.928;2023-03-16T12:55:25;5.68;;;2.42;;
17193;SDS011;8713;48.388;10.928;2023-03-16T12:57:07;7.05;;;3.00;;
17193;SDS011;8713;48.388;10.928;2023-03-16T12:58:40;3.72;;;2.70;;
17193;SDS011;8713;48.388;10.928;2023-03-16T13:00:12;3.53;;;2.33;;
17193;SDS011;8713;48.388;10.928;2023-03-16T13:01:43;5.32;;;2.38;;
17193;SDS011;8713;48.388;10.928;2023-03-16T13:03:13;5.32;;;2.28;;
17193;SDS011;8713;48.388;10.928;2023-03-16T13:04:47;3.20;;;2.20;;
17193;SDS011;8713;48.388;10.928;2023-03-16T13:06:28;4.20;;;2.35;;
17193;SDS011;8713;48.388;10.928;2023-03-16T13:08:05;3.38;;;2.17;;
17193;SDS011;8713;48.388;10.928;2023-03-16T13:09:46;3.70;;;2.42;;
17193;SDS011;8713;48.388;10.928;2023-03-16T13:11:19;3.72;;;2.35;;
17193;SDS011;8713;48.388;10.928;2023-03-16T13:12:47;3.17;;;2.22;;
17193;SDS011;8713;48.388;10.928;2023-03-16T13:14:35;4.40;;;2.65;;
17193;SDS011;8713;48.388;10.928;2023-03-16T13:16:09;4.45;;;2.78;;
17193;SDS011;8713;48.388;10.928;2023-03-16T13:18:02;3.05;;;2.25;;
17193;SDS011;8713;48.388;10.928;2023-03-16T13:19:38;3.00;;;2.15;;
17193;SDS011;8713;48.388;10.928;2023-03-16T13:24:48;4.68;;;2.50;;
17193;SDS011;8713;48.388;10.928;2023-03-16T13:26:37;4.72;;;2.22;;
17193;SDS011;8713;48.388;10.928;2023-03-16T13:28:13;3.15;;;2.05;;
17193;SDS011;8713;48.388;10.928;2023-03-16T13:29:51;3.05;;;2.00;;
17193;SDS011;8713;48.388;10.928;2023-03-16T13:31:27;4.00;;;2.05;;
17193;SDS011;8713;48.388;10.928;2023-03-16T13:32:44;4.03;;;1.98;;
17193;SDS011;8713;48.388;10.928;2023-03-16T13:34:18;6.22;;;2.60;;
17193;SDS011;8713;48.388;10.928;2023-03-16T13:35:54;3.72;;;2.53;;
17193;SDS011;8713;48.388;10.928;2023-03-16T13:37:24;4.30;;;2.63;;
17193;SDS011;8713;48.388;10.928;2023-03-16T13:38:59;6.43;;;2.65;;
17193;SDS011;8713;48.388;10.928;2023-03-16T13:40:51;2.85;;;2.47;;
17193;SDS011;8713;48.388;10.928;2023-03-16T13:43:41;3.28;;;2.45;;
17193;SDS011;8713;48.388;10.928;2023-03-16T13:45:12;3.28;;;2.50;;
17193;SDS011;8713;48.388;10.928;2023-03-16T13:46:46;7.60;;;2.60;;
17193;SDS011;8713;48.388;10.928;2023-03-16T13:48:16;3.83;;;2.47;;
17193;SDS011;8713;48.388;10.928;2023-03-16T13:49:48;4.40;;;2.67;;
17193;SDS011;8713;48.388;10.928;2023-03-16T13:51:21;4.38;;;2.72;;
17193;SDS011;8713;48.388;10.928;2023-03-16T13:53:00;4.15;;;2.33;;
17193;SDS011;8713;48.388;10.928;2023-03-16T13:54:30;7.20;;;2.50;;
17193;SDS011;8713;48.388;10.928;2023-03-16T13:55:59;3.78;;;2.45;;
17193;SDS011;8713;48.388;10.928;2023-03-16T13:57:29;4.38;;;2.35;;
17193;SDS011;8713;48.388;10.928;2023-03-16T13:59:02;4.13;;;2.40;;
17193;SDS011;8713;48.388;10.928;2023-03-16T14:00:34;5.57;;;2.65;;
17193;SDS011;8713;48.388;10.928;2023-03-16T14:02:08;4.25;;;2.70;;
17193;SDS011;8713;48.388;10.928;2023-03-16T14:03:44;5.60;;;2.72;;
17193;SDS011;8713;48.388;10.928;2023-03-16T14:05:09;3.85;;;2.53;;
17193;SDS011;8713;48.388;10.928;2023-03-16T14:06:37;3.78;;;2.17;;
17193;SDS011;8713;48.388;10.928;2023-03-16T14:08:13;4.47;;;2.22;;
17193;SDS011;8713;48.388;10.928;2023-03-16T14:09:49;4.63;;;2.35;;
17193;SDS011;8713;48.388;10.928;2023-03-16T14:11:19;3.88;;;2.10;;
17193;SDS011;8713;48.388;10.928;2023-03-16T14:14:28;3.35;;;2.40;;
17193;SDS011;8713;48.388;10.928;2023-03-16T14:17:43;4.32;;;2.00;;
17193;SDS011;8713;48.388;10.928;2023-03-16T14:19:15;3.47;;;2.42;;
17193;SDS011;8713;48.388;10.928;2023-03-16T14:20:50;5.35;;;2.45;;
17193;SDS011;8713;48.388;10.928;2023-03-16T14:22:22;3.28;;;2.22;;
17193;SDS011;8713;48.388;10.928;2023-03-16T14:24:50;6.60;;;2.50;;
17193;SDS011;8713;48.388;10.928;2023-03-16T14:26:09;3.00;;;2.17;;
17193;SDS011;8713;48.388;10.928;2023-03-16T14:27:45;3.65;;;2.10;;
17193;SDS011;8713;48.388;10.928;2023-03-16T14:29:20;3.22;;;2.22;;
17193;SDS011;8713;48.388;10.928;2023-03-16T14:31:00;2.85;;;2.10;;
17193;SDS011;8713;48.388;10.928;2023-03-16T14:32:35;3.45;;;2.10;;
17193;SDS011;8713;48.388;10.928;2023-03-16T14:33:45;3.63;;;1.85;;
17193;SDS011;8713;48.388;10.928;2023-03-16T14:35:13;4.40;;;2.22;;
17193;SDS011;8713;48.388;10.928;2023-03-16T14:36:32;3.67;;;2.00;;
17193;SDS011;8713;48.388;10.928;2023-03-16T14:38:19;3.92;;;2.28;;
17193;SDS011;8713;48.388;10.928;2023-03-16T14:40:05;4.40;;;2.35;;
17193;SDS011;8713;48.388;10.928;2023-03-16T14:41:54;2.88;;;1.95;;
17193;SDS011;8713;48.388;10.928;2023-03-16T14:43:28;4.68;;;1.92;;
17193;SDS011;8713;48.388;10.928;2023-03-16T14:45:00;3.35;;;1.77;;
17193;SDS011;8713;48.388;10.928;2023-03-16T14:46:24;2.97;;;1.80;;
17193;SDS011;8713;48.388;10.928;2023-03-16T14:47:59;3.15;;;2.10;;
17193;SDS011;8713;48.388;10.928;2023-03-16T14:49:33;3.03;;;2.10;;
17193;SDS011;8713;48.388;10.928;2023-03-16T14:50:44;2.83;;;2.20;;
17193;SDS011;8713;48.388;10.928;2023-03-16T14:52:16;3.35;;;1.92;;
17193;SDS011;8713;48.388;10.928;2023-03-16T14:53:49;3.45;;;1.85;;
17193;SDS011;8713;48.388;10.928;2023-03-16T14:55:18;2.50;;;1.88;;
17193;SDS011;8713;48.388;10.928;2023-03-16T14:56:48;2.92;;;1.98;;
17193;SDS011;8713;48.388;10.928;2023-03-16T14:58:21;3.90;;;2.50;;
17193;SDS011;8713;48.388;10.928;2023-03-16T14:59:50;4.22;;;2.30;;
17193;SDS011;8713;48.388;10.928;2023-03-16T15:01:19;3.75;;;1.92;;
17193;SDS011;8713;48.388;10.928;2023-03-16T15:02:51;3.05;;;2.00;;
17193;SDS011;8713;48.388;10.928;2023-03-16T15:04:42;4.10;;;2.10;;
17193;SDS011;8713;48.388;10.928;2023-03-16T15:06:11;4.30;;;2.10;;
17193;SDS011;8713;48.388;10.928;2023-03-16T15:07:39;4.47;;;2.13;;
17193;SDS011;8713;48.388;10.928;2023-03-16T15:11:07;2.47;;;1.85;;
17193;SDS011;8713;48.388;10.928;2023-03-16T15:12:37;3.75;;;2.40;;
17193;SDS011;8713;48.388;10.928;2023-03-16T15:13:48;3.45;;;2.22;;
17193;SDS011;8713;48.388;10.928;2023-03-16T15:14:58;4.22;;;2.22;;
17193;SDS011;8713;48.388;10.928;2023-03-16T15:16:45;4.63;;;2.40;;
17193;SDS011;8713;48.388;10.928;2023-03-16T15:17:54;3.78;;;2.53;;
17193;SDS011;8713;48.388;10.928;2023-03-16T15:19:24;4.13;;;2.40;;
17193;SDS011;8713;48.388;10.928;2023-03-16T15:20:52;3.30;;;2.38;;
17193;SDS011;8713;48.388;10.928;2023-03-16T15:22:23;3.08;;;2.15;;
17193;SDS011;8713;48.388;10.928;2023-03-16T15:23:36;2.80;;;2.30;;
17193;SDS011;8713;48.388;10.928;2023-03-16T15:24:46;3.08;;;2.40;;
17193;SDS011;8713;48.388;10.928;2023-03-16T15:25:56;5.30;;;2.58;;
17193;SDS011;8713;48.388;10.928;2023-03-16T15:27:31;3.20;;;2.30;;
17193;SDS011;8713;48.388;10.928;2023-03-16T15:29:02;4.07;;;2.75;;
17193;SDS011;8713;48.388;10.928;2023-03-16T15:30:34;5.57;;;3.10;;
17193;SDS011;8713;48.388;10.928;2023-03-16T15:32:04;4.25;;;2.50;;
17193;SDS011;8713;48.388;10.928;2023-03-16T15:33:35;3.97;;;2.72;;
17193;SDS011;8713;48.388;10.928;2023-03-16T15:35:04;3.47;;;2.40;;
17193;SDS011;8713;48.388;10.928;2023-03-16T15:36:33;3.13;;;2.30;;
17193;SDS011;8713;48.388;10.928;2023-03-16T15:38:01;3.20;;;2.45;;
17193;SDS011;8713;48.388;10.928;2023-03-16T15:39:23;2.92;;;2.10;;
17193;SDS011;8713;48.388;10.928;2023-03-16T15:40:51;6.35;;;2.60;;
17193;SDS011;8713;48.388;10.928;2023-03-16T15:42:20;4.10;;;2.22;;
17193;SDS011;8713;48.388;10.928;2023-03-16T15:43:45;4.32;;;2.15;;
17193;SDS011;8713;48.388;10.928;2023-03-16T15:45:16;2.58;;;1.92;;
17193;SDS011;8713;48.388;10.928;2023-03-16T15:46:47;2.88;;;2.05;;
17193;SDS011;8713;48.388;10.928;2023-03-16T15:48:15;4.10;;;2.17;;
17193;SDS011;8713;48.388;10.928;2023-03-16T15:49:43;5.22;;;2.60;;
17193;SDS011;8713;48.388;10.928;2023-03-16T15:51:18;3.97;;;2.55;;
17193;SDS011;8713;48.388;10.928;2023-03-16T15:52:55;3.85;;;2.60;;
17193;SDS011;8713;48.388;10.928;2023-03-16T15:54:26;4.43;;;2.65;;
17193;SDS011;8713;48.388;10.928;2023-03-16T15:55:39;3.70;;;2.40;;
17193;SDS011;8713;48.388;10.928;2023-03-16T15:57:09;5.22;;;2.63;;
17193;SDS011;8713;48.388;10.928;2023-03-16T15:58:39;4.22;;;2.20;;
17193;SDS011;8713;48.388;10.928;2023-03-16T16:00:20;4.80;;;2.50;;
17193;SDS011;8713;48.388;10.928;2023-03-16T16:02:24;3.28;;;2.25;;
17193;SDS011;8713;48.388;10.928;2023-03-16T16:03:59;3.58;;;2.45;;
17193;SDS011;8713;48.388;10.928;2023-03-16T16:05:27;5.70;;;2.63;;
17193;SDS011;8713;48.388;10.928;2023-03-16T16:06:57;3.35;;;2.60;;
17193;SDS011;8713;48.388;10.928;2023-03-16T16:08:26;3.63;;;2.28;;
17193;SDS011;8713;48.388;10.928;2023-03-16T16:09:55;3.97;;;2.60;;
17193;SDS011;8713;48.388;10.928;2023-03-16T16:11:24;3.35;;;2.50;;
17193;SDS011;8713;48.388;10.928;2023-03-16T16:12:54;4.30;;;2.25;;
17193;SDS011;8713;48.388;10.928;2023-03-16T16:14:23;4.32;;;2.10;;
17193;SDS011;8713;48.388;10.928;2023-03-16T16:15:52;4.57;;;2.10;;
17193;SDS011;8713;48.388;10.928;2023-03-16T16:17:20;3.60;;;2.15;;
17193;SDS011;8713;48.388;10.928;2023-03-16T16:18:52;6.20;;;2.60;;
17193;SDS011;8713;48.388;10.928;2023-03-16T16:20:21;4.85;;;2.55;;
17193;SDS011;8713;48.388;10.928;2023-03-16T16:21:35;3.08;;;2.47;;
17193;SDS011;8713;48.388;10.928;2023-03-16T16:23:04;4.55;;;2.45;;
17193;SDS011;8713;48.388;10.928;2023-03-16T16:24:14;4.07;;;2.40;;
17193;SDS011;8713;48.388;10.928;2023-03-16T16:25:27;3.70;;;2.60;;
17193;SDS011;8713;48.388;10.928;2023-03-16T16:26:43;3.28;;;2.08;;
17193;SDS011;8713;48.388;10.928;2023-03-16T16:28:17;3.88;;;2.38;;
17193;SDS011;8713;48.388;10.928;2023-03-16T16:29:49;4.35;;;2.47;;
17193;SDS011;8713;48.388;10.928;2023-03-16T16:31:18;3.42;;;2.47;;
17193;SDS011;8713;48.388;10.928;2023-03-16T16:32:48;3.50;;;2.25;;
17193;SDS011;8713;48.388;10.928;2023-03-16T16:34:18;4.25;;;2.33;;
17193;SDS011;8713;48.388;10.928;2023-03-16T16:35:48;4.05;;;2.42;;
17193;SDS011;8713;48.388;10.928;2023-03-16T16:37:01;3.33;;;2.40;;
17193;SDS011;8713;48.388;10.928;2023-03-16T16:38:30;3.50;;;2.40;;
17193;SDS011;8713;48.388;10.928;2023-03-16T16:39:59;3.95;;;2.25;;
17193;SDS011;8713;48.388;10.928;2023-03-16T16:41:28;3.80;;;2.47;;
17193;SDS011;8713;48.388;10.928;2023-03-16T16:42:57;4.60;;;2.42;;
17193;SDS011;8713;48.388;10.928;2023-03-16T16:44:29;4.65;;;2.40;;
17193;SDS011;8713;48.388;10.928;2023-03-16T16:45:58;3.08;;;2.20;;
17193;SDS011;8713;48.388;10.928;2023-03-16T16:47:28;3.42;;;2.05;;
17193;SDS011;8713;48.388;10.928;2023-03-16T16:48:57;3.97;;;2.28;;
17193;SDS011;8713;48.388;10.928;2023-03-16T16:50:27;5.57;;;2.30;;
17193;SDS011;8713;48.388;10.928;2023-03-16T16:51:57;9.25;;;5.80;;
17193;SDS011;8713;48.388;10.928;2023-03-16T16:53:25;18.10;;;10.68;;
17193;SDS011;8713;48.388;10.928;2023-03-16T16:54:53;12.15;;;6.00;;
17193;SDS011;8713;48.388;10.928;2023-03-16T16:56:16;6.63;;;3.95;;
17193;SDS011;8713;48.388;10.928;2023-03-16T16:57:47;8.98;;;4.18;;
17193;SDS011;8713;48.388;10.928;2023-03-16T16:59:17;5.25;;;3.50;;
17193;SDS011;8713;48.388;10.928;2023-03-16T17:00:38;7.13;;;3.75;;
17193;SDS011;8713;48.388;10.928;2023-03-16T17:02:20;5.40;;;2.97;;
17193;SDS011;8713;48.388;10.928;2023-03-16T17:03:55;4.53;;;3.20;;
17193;SDS011;8713;48.388;10.928;2023-03-16T17:05:24;5.10;;;2.70;;
17193;SDS011;8713;48.388;10.928;2023-03-16T17:06:56;4.95;;;2.53;;
17193;SDS011;8713;48.388;10.928;2023-03-16T17:08:27;4.55;;;3.05;;
17193;SDS011;8713;48.388;10.928;2023-03-16T17:09:55;5.25;;;3.28;;
17193;SDS011;8713;48.388;10.928;2023-03-16T17:11:25;8.23;;;4.90;;
17193;SDS011;8713;48.388;10.928;2023-03-16T17:12:56;5.63;;;3.35;;